Time;durP1;ratioP1;P1;durP2;ratioP2;P2;SDS_P1;SDS_P2;PMS_P1;PMS_P2;Temp;Humidity;BMP_temperature;BMP_pressure;BME280_temperature;BME280_humidity;BME280_pressure;Samples;Min_cycle;Max_cycle;Signal;HPM_P1;HPM_P2
2022/10/05 00:01:59;0.00;0.00;0.62;0.00;0.00;0.62;2.50;1.23;;;28.60;27.60;;;;;;2270180;61;20660;-71
2022/10/05 00:04:44;0.00;0.00;0.62;0.00;0.00;0.62;1.60;1.20;;;28.60;27.50;;;;;;2269335;61;20371;-68
2022/10/05 00:07:29;0.00;0.00;0.62;0.00;0.00;0.62;3.57;1.67;;;28.60;27.40;;;;;;2269934;61;20676;-70
2022/10/05 00:10:23;0.00;0.00;0.62;0.00;0.00;0.62;4.30;1.40;;;28.60;27.40;;;;;;2270132;61;20376;-68
2022/10/05 00:13:15;0.00;0.00;0.62;0.00;0.00;0.62;2.40;1.50;;;28.50;27.30;;;;;;2269702;61;20356;-70
2022/10/05 00:16:13;0.00;0.00;0.62;0.00;0.00;0.62;2.40;1.63;;;28.50;27.20;;;;;;2270036;61;20707;-68
2022/10/05 00:18:58;0.00;0.00;0.62;0.00;0.00;0.62;2.77;2.07;;;28.50;27.10;;;;;;2269363;61;20388;-69
2022/10/05 00:21:43;0.00;0.00;0.62;0.00;0.00;0.62;3.47;2.10;;;28.40;27.10;;;;;;2269587;61;20402;-68
2022/10/05 00:24:29;0.00;0.00;0.62;0.00;0.00;0.62;2.37;1.60;;;28.40;27.00;;;;;;2270372;61;20367;-68
2022/10/05 00:27:18;0.00;0.00;0.62;0.00;0.00;0.62;2.20;1.77;;;28.30;27.40;;;;;;2269132;61;20766;-69
2022/10/05 00:30:14;0.00;0.00;0.62;0.00;0.00;0.62;2.70;1.80;;;28.30;26.90;;;;;;2269821;61;20380;-70
2022/10/05 00:33:00;0.00;0.00;0.62;0.00;0.00;0.62;2.20;1.67;;;28.20;26.80;;;;;;2269859;61;20410;-70
2022/10/05 00:35:45;0.00;0.00;0.62;0.00;0.00;0.62;3.10;1.57;;;28.20;26.90;;;;;;2266686;61;20352;-67
2022/10/05 00:38:30;0.00;0.00;0.62;0.00;0.00;0.62;2.10;1.67;;;28.20;26.90;;;;;;2270007;61;20360;-71
2022/10/05 00:41:20;0.00;0.00;0.62;0.00;0.00;0.62;3.00;1.87;;;28.10;26.90;;;;;;2269420;61;20356;-68
2022/10/05 00:44:45;0.00;0.00;0.62;0.00;0.00;0.62;3.20;1.90;;;28.10;26.80;;;;;;2269661;61;20476;-70
2022/10/05 00:47:47;0.00;0.00;0.62;0.00;0.00;0.62;2.20;1.83;;;28.10;26.80;;;;;;2269406;61;20391;-70
2022/10/05 00:50:50;0.00;0.00;0.62;0.00;0.00;0.62;2.97;2.20;;;28.10;26.80;;;;;;2269483;61;20408;-70
2022/10/05 00:53:46;0.00;0.00;0.62;0.00;0.00;0.62;3.20;2.10;;;28.00;26.80;;;;;;2269796;61;20362;-69
2022/10/05 00:56:57;0.00;0.00;0.62;0.00;0.00;0.62;2.30;1.70;;;28.00;26.80;;;;;;2268944;61;20438;-69
2022/10/05 01:00:03;0.00;0.00;0.62;0.00;0.00;0.62;2.30;1.90;;;27.90;26.80;;;;;;2269938;61;20414;-71
2022/10/05 01:03:00;0.00;0.00;0.62;0.00;0.00;0.62;2.87;2.03;;;27.90;26.80;;;;;;2269360;61;20345;-67
2022/10/05 01:06:03;0.00;0.00;0.62;0.00;0.00;0.62;3.03;2.30;;;27.80;26.80;;;;;;2269369;61;20555;-69
2022/10/05 01:08:57;0.00;0.00;0.62;0.00;0.00;0.62;2.83;2.00;;;27.80;26.80;;;;;;2269914;61;20371;-67
2022/10/05 01:11:49;0.00;0.00;0.62;0.00;0.00;0.62;3.30;1.80;;;27.80;27.40;;;;;;2269123;61;20398;-69
2022/10/05 01:14:43;0.00;0.00;0.62;0.00;0.00;0.62;2.37;1.90;;;27.80;26.90;;;;;;2269958;61;20585;-68
2022/10/05 01:17:38;0.00;0.00;0.62;0.00;0.00;0.62;4.03;2.33;;;27.70;26.90;;;;;;2269634;61;20399;-68
2022/10/05 01:20:42;0.00;0.00;0.62;0.00;0.00;0.62;4.60;2.60;;;27.70;26.90;;;;;;2269381;61;20375;-68
2022/10/05 01:24:23;0.00;0.00;0.62;0.00;0.00;0.62;2.30;1.93;;;27.70;26.90;;;;;;2269400;61;20600;-68
2022/10/05 01:27:31;0.00;0.00;0.62;0.00;0.00;0.62;2.00;1.73;;;27.70;26.90;;;;;;2269041;61;20394;-68
2022/10/05 01:30:19;0.00;0.00;0.62;0.00;0.00;0.62;4.43;2.40;;;27.60;26.90;;;;;;2269689;61;20868;-67
2022/10/05 01:33:14;0.00;0.00;0.62;0.00;0.00;0.62;3.53;2.20;;;27.60;26.90;;;;;;2268845;61;20383;-70
2022/10/05 01:36:08;0.00;0.00;0.62;0.00;0.00;0.62;2.70;2.00;;;27.50;26.90;;;;;;2269409;61;20348;-69
2022/10/05 01:39:02;0.00;0.00;0.62;0.00;0.00;0.62;3.30;2.47;;;27.60;26.90;;;;;;2269441;61;20343;-70
2022/10/05 01:42:00;0.00;0.00;0.62;0.00;0.00;0.62;3.30;2.37;;;27.50;26.90;;;;;;2269417;61;20561;-68
2022/10/05 01:44:58;0.00;0.00;0.62;0.00;0.00;0.62;3.30;2.00;;;27.50;26.90;;;;;;2269657;61;20356;-69
2022/10/05 01:47:47;0.00;0.00;0.62;0.00;0.00;0.62;3.40;2.10;;;27.40;26.90;;;;;;2269261;61;20406;-70
2022/10/05 01:50:45;0.00;0.00;0.62;0.00;0.00;0.62;3.60;2.33;;;27.40;26.90;;;;;;2269310;61;20379;-67
2022/10/05 01:53:44;0.00;0.00;0.62;0.00;0.00;0.62;2.80;2.20;;;27.40;27.00;;;;;;2269685;61;20568;-70
2022/10/05 01:56:37;0.00;0.00;0.62;0.00;0.00;0.62;2.63;2.27;;;27.40;27.00;;;;;;2268857;61;20423;-70
2022/10/05 01:59:35;0.00;0.00;0.62;0.00;0.00;0.62;3.20;2.73;;;27.40;27.00;;;;;;2269156;61;20368;-69
2022/10/05 02:02:24;0.00;0.00;0.62;0.00;0.00;0.62;2.53;2.10;;;27.30;27.00;;;;;;2269064;61;20375;-67
2022/10/05 02:05:15;0.00;0.00;0.62;0.00;0.00;0.62;2.63;2.10;;;27.30;27.30;;;;;;2269345;61;20434;-67
2022/10/05 02:08:06;0.00;0.00;0.62;0.00;0.00;0.62;3.13;2.00;;;27.30;27.10;;;;;;2269370;61;20364;-70
2022/10/05 02:10:58;0.00;0.00;0.62;0.00;0.00;0.62;2.63;2.43;;;27.20;27.10;;;;;;2268892;61;20419;-69
2022/10/05 02:13:50;0.00;0.00;0.62;0.00;0.00;0.62;2.53;2.30;;;27.20;27.10;;;;;;2269192;61;20370;-70
2022/10/05 02:16:41;0.00;0.00;0.62;0.00;0.00;0.62;2.60;2.20;;;27.20;27.20;;;;;;2269247;61;20360;-69
2022/10/05 02:19:34;0.00;0.00;0.62;0.00;0.00;0.62;2.30;1.90;;;27.20;27.20;;;;;;2269578;61;20445;-68
2022/10/05 02:22:28;0.00;0.00;0.62;0.00;0.00;0.62;2.40;2.20;;;27.20;27.20;;;;;;2269840;61;20479;-70
2022/10/05 02:25:17;0.00;0.00;0.62;0.00;0.00;0.62;2.70;1.80;;;27.20;27.80;;;;;;2268704;61;20355;-68
2022/10/05 02:28:09;0.00;0.00;0.62;0.00;0.00;0.62;3.40;3.00;;;27.20;27.30;;;;;;2268875;61;20475;-69
2022/10/05 02:31:05;0.00;0.00;0.62;0.00;0.00;0.62;2.90;2.33;;;27.10;27.30;;;;;;2269190;61;20579;-68
2022/10/05 02:34:11;0.00;0.00;0.62;0.00;0.00;0.62;4.43;2.77;;;27.10;27.40;;;;;;2269169;61;20352;-67
2022/10/05 02:37:15;0.00;0.00;0.62;0.00;0.00;0.62;2.87;2.40;;;27.10;27.40;;;;;;2269216;61;20406;-68
2022/10/05 02:40:18;0.00;0.00;0.62;0.00;0.00;0.62;4.50;2.40;;;27.00;27.40;;;;;;2268493;61;20372;-68
2022/10/05 02:43:15;0.00;0.00;0.62;0.00;0.00;0.62;2.50;2.30;;;27.00;27.40;;;;;;2269100;61;20359;-67
2022/10/05 02:46:14;0.00;0.00;0.62;0.00;0.00;0.62;2.90;2.60;;;27.00;27.40;;;;;;2268849;61;20387;-68
2022/10/05 02:49:13;0.00;0.00;0.62;0.00;0.00;0.62;4.10;2.50;;;27.00;27.40;;;;;;2502281;53;20377;-66
2022/10/05 02:52:10;0.00;0.00;0.62;0.00;0.00;0.62;2.97;2.43;;;26.90;27.40;;;;;;2265169;61;20346;-68
2022/10/05 02:55:09;0.00;0.00;0.62;0.00;0.00;0.62;4.43;2.47;;;26.90;27.40;;;;;;2265026;61;20488;-68
2022/10/05 02:58:04;0.00;0.00;0.62;0.00;0.00;0.62;2.57;2.37;;;26.90;27.50;;;;;;2264960;61;20353;-70
2022/10/05 03:01:00;0.00;0.00;0.62;0.00;0.00;0.62;2.90;2.50;;;26.90;27.50;;;;;;2265021;61;20595;-69
2022/10/05 03:03:53;0.00;0.00;0.62;0.00;0.00;0.62;3.57;3.07;;;26.90;27.50;;;;;;2265424;61;20737;-67
2022/10/05 03:06:49;0.00;0.00;0.62;0.00;0.00;0.62;3.37;2.87;;;26.80;27.50;;;;;;2265404;61;20388;-70
2022/10/05 03:09:41;0.00;0.00;0.62;0.00;0.00;0.62;3.00;2.33;;;26.80;27.40;;;;;;2264301;61;20389;-68
2022/10/05 03:12:43;0.00;0.00;0.62;0.00;0.00;0.62;2.50;2.10;;;26.80;27.50;;;;;;2265120;61;20361;-67
2022/10/05 03:15:58;0.00;0.00;0.62;0.00;0.00;0.62;3.73;2.57;;;26.80;27.50;;;;;;2265004;61;20364;-70
2022/10/05 03:19:01;0.00;0.00;0.62;0.00;0.00;0.62;3.13;2.20;;;26.70;27.50;;;;;;2264968;61;20353;-69
2022/10/05 03:21:57;0.00;0.00;0.62;0.00;0.00;0.62;3.13;2.60;;;26.70;27.50;;;;;;2265567;61;20356;-66
2022/10/05 03:25:03;0.00;0.00;0.62;0.00;0.00;0.62;3.77;2.13;;;26.70;27.50;;;;;;2264678;61;20369;-67
2022/10/05 03:27:58;0.00;0.00;0.62;0.00;0.00;0.62;3.27;2.53;;;26.60;27.50;;;;;;2265025;61;20357;-66
2022/10/05 03:30:52;0.00;0.00;0.62;0.00;0.00;0.62;4.17;2.87;;;26.60;27.50;;;;;;2265118;61;20381;-68
2022/10/05 03:33:45;0.00;0.00;0.62;0.00;0.00;0.62;3.37;2.30;;;26.60;27.50;;;;;;2265035;61;20373;-67
2022/10/05 03:36:42;0.00;0.00;0.62;0.00;0.00;0.62;4.40;2.83;;;26.50;27.50;;;;;;2265164;61;20388;-68
2022/10/05 03:39:36;0.00;0.00;0.62;0.00;0.00;0.62;5.10;2.87;;;26.50;27.50;;;;;;2264887;61;20368;-70
2022/10/05 03:42:32;0.00;0.00;0.62;0.00;0.00;0.62;3.67;2.43;;;26.50;27.60;;;;;;2265487;61;20372;-67
2022/10/05 03:45:26;0.00;0.00;0.62;0.00;0.00;0.62;2.87;2.20;;;26.50;27.60;;;;;;2265603;61;20380;-68
2022/10/05 03:48:17;0.00;0.00;0.62;0.00;0.00;0.62;2.90;2.50;;;26.50;27.70;;;;;;2266156;61;20600;-69
2022/10/05 03:51:11;0.00;0.00;0.62;0.00;0.00;0.62;3.60;2.87;;;26.50;27.70;;;;;;2269735;61;20407;-69
2022/10/05 03:54:07;0.00;0.00;0.62;0.00;0.00;0.62;4.23;2.60;;;26.50;27.70;;;;;;2269205;61;20352;-69
2022/10/05 03:56:54;0.00;0.00;0.62;0.00;0.00;0.62;3.57;2.90;;;26.40;27.60;;;;;;2270094;61;20352;-68
2022/10/05 03:59:53;0.00;0.00;0.62;0.00;0.00;0.62;3.27;2.80;;;26.40;27.70;;;;;;2269570;61;20423;-68
2022/10/05 04:02:47;0.00;0.00;0.62;0.00;0.00;0.62;3.30;2.50;;;26.40;27.70;;;;;;2269195;61;20368;-69
2022/10/05 04:05:38;0.00;0.00;0.62;0.00;0.00;0.62;4.47;2.60;;;26.30;27.70;;;;;;2269663;61;20399;-71
2022/10/05 04:08:33;0.00;0.00;0.62;0.00;0.00;0.62;2.63;2.43;;;26.30;27.70;;;;;;2269425;61;20419;-69
2022/10/05 04:11:30;0.00;0.00;0.62;0.00;0.00;0.62;4.03;3.00;;;26.30;27.70;;;;;;2269345;61;20584;-70
2022/10/05 04:14:22;0.00;0.00;0.62;0.00;0.00;0.62;6.37;3.97;;;26.30;27.70;;;;;;2269722;61;20462;-66
2022/10/05 04:17:14;0.00;0.00;0.62;0.00;0.00;0.62;7.33;2.77;;;26.30;27.70;;;;;;2269255;61;20357;-66
2022/10/05 04:20:03;0.00;0.00;0.62;0.00;0.00;0.62;3.53;2.67;;;26.30;27.70;;;;;;2269337;61;20375;-67
2022/10/05 04:22:58;0.00;0.00;0.62;0.00;0.00;0.62;4.03;2.73;;;26.20;27.70;;;;;;2268982;61;20441;-67
2022/10/05 04:25:49;0.00;0.00;0.62;0.00;0.00;0.62;3.50;2.63;;;26.20;27.80;;;;;;2269202;61;20420;-67
2022/10/05 04:28:44;0.00;0.00;0.62;0.00;0.00;0.62;3.20;2.50;;;26.20;27.80;;;;;;2269632;61;20503;-66
2022/10/05 04:31:55;0.00;0.00;0.62;0.00;0.00;0.62;4.00;3.20;;;26.20;27.80;;;;;;2268930;61;20368;-70
2022/10/05 04:35:01;0.00;0.00;0.62;0.00;0.00;0.62;5.90;2.70;;;26.20;27.80;;;;;;2269925;61;20700;-70
2022/10/05 04:38:00;0.00;0.00;0.62;0.00;0.00;0.62;5.83;2.97;;;26.10;27.80;;;;;;2269076;61;20348;-70
2022/10/05 04:41:01;0.00;0.00;0.62;0.00;0.00;0.62;5.20;2.83;;;26.10;27.80;;;;;;2269132;61;20376;-68
2022/10/05 04:44:04;0.00;0.00;0.62;0.00;0.00;0.62;4.53;2.80;;;26.10;27.90;;;;;;2269716;61;20763;-70
2022/10/05 04:47:09;0.00;0.00;0.62;0.00;0.00;0.62;4.40;2.80;;;26.10;27.90;;;;;;2269060;61;20371;-68
2022/10/05 04:50:22;0.00;0.00;0.62;0.00;0.00;0.62;13.20;3.00;;;26.10;27.90;;;;;;2269913;61;20387;-71
2022/10/05 04:53:30;0.00;0.00;0.62;0.00;0.00;0.62;4.87;2.63;;;26.00;27.90;;;;;;2269600;61;20356;-68
2022/10/05 04:56:22;0.00;0.00;0.62;0.00;0.00;0.62;3.83;2.73;;;26.00;28.00;;;;;;2269352;61;20353;-70
2022/10/05 04:59:39;0.00;0.00;0.62;0.00;0.00;0.62;5.90;3.43;;;26.00;28.00;;;;;;2269708;61;20384;-71
2022/10/05 05:02:40;0.00;0.00;0.62;0.00;0.00;0.62;3.53;2.77;;;26.00;28.00;;;;;;2269340;61;20356;-69
2022/10/05 05:05:44;0.00;0.00;0.62;0.00;0.00;0.62;4.90;2.90;;;26.00;28.00;;;;;;2269711;61;20364;-69
2022/10/05 05:09:03;0.00;0.00;0.62;0.00;0.00;0.62;3.50;2.93;;;26.00;28.00;;;;;;2269029;61;20375;-70
2022/10/05 05:12:08;0.00;0.00;0.62;0.00;0.00;0.62;5.60;3.20;;;26.00;28.00;;;;;;2269543;61;20399;-68
2022/10/05 05:15:26;0.00;0.00;0.62;0.00;0.00;0.62;3.80;3.40;;;26.00;28.00;;;;;;2269156;61;20735;-70
2022/10/05 05:18:39;0.00;0.00;0.62;0.00;0.00;0.62;5.53;2.90;;;26.00;28.00;;;;;;2269617;61;20395;-68
2022/10/05 05:21:48;;;;;;;;;;;;;;;;;;;;;
2022/10/05 05:24:49;0.00;0.00;0.62;0.00;0.00;0.62;7.20;3.07;;;25.90;28.10;;;;;;2266204;61;20454;-69
2022/10/05 05:27:42;0.00;0.00;0.62;0.00;0.00;0.62;5.30;3.00;;;25.90;28.10;;;;;;2270145;61;20611;-68
2022/10/05 05:30:38;0.00;0.00;0.62;0.00;0.00;0.62;3.67;3.20;;;25.90;28.20;;;;;;2268732;61;20418;-67
2022/10/05 05:33:33;0.00;0.00;0.62;0.00;0.00;0.62;4.47;3.17;;;25.90;28.20;;;;;;2269324;61;20439;-69
2022/10/05 05:36:33;0.00;0.00;0.62;0.00;0.00;0.62;4.10;3.50;;;25.80;28.10;;;;;;2269256;61;20352;-75
2022/10/05 05:39:27;0.00;0.00;0.62;0.00;0.00;0.62;4.20;3.00;;;25.80;28.20;;;;;;2269244;61;20375;-68
2022/10/05 05:42:26;0.00;0.00;0.62;0.00;0.00;0.62;4.53;3.70;;;25.80;28.30;;;;;;2269551;61;20392;-68
2022/10/05 05:45:18;0.00;0.00;0.62;0.00;0.00;0.62;5.60;3.67;;;25.80;28.20;;;;;;2268994;61;20357;-68
2022/10/05 05:48:15;0.00;0.00;0.62;0.00;0.00;0.62;4.30;3.90;;;25.80;28.20;;;;;;2266236;61;20736;-68
2022/10/05 05:51:07;0.00;0.00;0.62;0.00;0.00;0.62;3.73;3.27;;;25.70;28.10;;;;;;2269253;61;20912;-75
2022/10/05 05:54:16;0.00;0.00;0.62;0.00;0.00;0.62;4.10;3.10;;;25.60;28.10;;;;;;2269323;61;20638;-70
2022/10/05 05:57:11;0.00;0.00;0.62;0.00;0.00;0.62;5.27;3.03;;;25.60;28.20;;;;;;2269499;61;20359;-70
2022/10/05 06:00:07;0.00;0.00;0.62;0.00;0.00;0.62;4.77;3.00;;;25.60;28.30;;;;;;2268386;61;20605;-71
2022/10/05 06:03:14;0.00;0.00;0.62;0.00;0.00;0.62;5.57;3.20;;;25.50;28.30;;;;;;2269138;61;20352;-69
2022/10/05 06:06:03;0.00;0.00;0.62;0.00;0.00;0.62;4.23;3.00;;;25.50;28.30;;;;;;2268819;61;20716;-71
2022/10/05 06:08:52;0.00;0.00;0.62;0.00;0.00;0.62;3.47;3.17;;;25.50;28.90;;;;;;2269093;61;20384;-71
2022/10/05 06:12:05;0.00;0.00;0.62;0.00;0.00;0.62;4.60;3.30;;;25.50;28.40;;;;;;2269688;61;20727;-70
2022/10/05 06:14:55;0.00;0.00;0.62;0.00;0.00;0.62;3.93;3.27;;;25.50;28.50;;;;;;2268487;61;20399;-71
2022/10/05 06:17:46;0.00;0.00;0.62;0.00;0.00;0.62;4.10;2.83;;;25.50;28.50;;;;;;2269028;61;20390;-72
2022/10/05 06:20:39;0.00;0.00;0.62;0.00;0.00;0.62;4.73;2.80;;;25.50;28.50;;;;;;2269004;61;20387;-71
2022/10/05 06:23:31;0.00;0.00;0.62;0.00;0.00;0.62;5.20;3.23;;;25.50;28.50;;;;;;2268794;61;20586;-75
2022/10/05 06:26:56;0.00;0.00;0.62;0.00;0.00;0.62;4.07;3.40;;;25.50;28.50;;;;;;2269096;61;20454;-71
2022/10/05 06:30:05;0.00;0.00;0.62;0.00;0.00;0.62;3.73;2.53;;;25.50;29.10;;;;;;2268637;61;20395;-73
2022/10/05 06:33:06;0.00;0.00;0.62;0.00;0.00;0.62;5.17;2.93;;;25.40;28.50;;;;;;2269048;61;20375;-72
2022/10/05 06:36:16;0.00;0.00;0.62;0.00;0.00;0.62;4.43;3.53;;;25.40;28.50;;;;;;2268382;61;20357;-69
2022/10/05 06:39:33;0.00;0.00;0.62;0.00;0.00;0.62;4.40;2.90;;;25.40;28.50;;;;;;2269168;61;20352;-69
2022/10/05 06:43:04;0.00;0.00;0.62;0.00;0.00;0.62;4.60;3.57;;;25.40;28.50;;;;;;2269214;61;20368;-68
2022/10/05 06:46:09;0.00;0.00;0.62;0.00;0.00;0.62;3.80;2.97;;;25.50;28.40;;;;;;2269312;61;20359;-63
2022/10/05 06:49:19;0.00;0.00;0.62;0.00;0.00;0.62;2.90;2.57;;;25.40;28.40;;;;;;2269448;61;20396;-72
2022/10/05 06:52:19;0.00;0.00;0.62;0.00;0.00;0.62;3.10;2.67;;;25.40;28.50;;;;;;2268888;61;20391;-73
2022/10/05 06:55:17;0.00;0.00;0.62;0.00;0.00;0.62;4.70;2.63;;;25.40;28.50;;;;;;2265012;61;20441;-72
2022/10/05 06:58:19;0.00;0.00;0.62;0.00;0.00;0.62;2.63;2.43;;;25.40;28.60;;;;;;2337345;53;20407;-72
2022/10/05 07:01:14;0.00;0.00;0.62;0.00;0.00;0.62;2.70;2.17;;;25.40;28.50;;;;;;2269323;61;20395;-70
2022/10/05 07:04:18;0.00;0.00;0.62;0.00;0.00;0.62;2.53;2.33;;;25.50;28.60;;;;;;2269401;61;20586;-71
2022/10/05 07:07:15;0.00;0.00;0.62;0.00;0.00;0.62;2.90;2.37;;;25.50;28.60;;;;;;2268302;61;20356;-66
2022/10/05 07:10:16;0.00;0.00;0.62;0.00;0.00;0.62;3.40;2.60;;;25.50;28.50;;;;;;2269100;61;20383;-70
2022/10/05 07:13:32;0.00;0.00;0.62;0.00;0.00;0.62;2.50;2.10;;;25.60;28.60;;;;;;2268691;61;20414;-72
2022/10/05 07:16:35;0.00;0.00;0.62;0.00;0.00;0.62;3.37;2.23;;;25.60;28.60;;;;;;2269607;61;20410;-69
2022/10/05 07:19:35;0.00;0.00;0.62;0.00;0.00;0.62;2.23;2.00;;;25.70;28.60;;;;;;2269987;61;20379;-72
2022/10/05 07:23:02;0.00;0.00;0.62;0.00;0.00;0.62;3.10;2.63;;;25.70;28.60;;;;;;2269708;61;20397;-70
2022/10/05 07:25:57;0.00;0.00;0.62;0.00;0.00;0.62;3.27;2.10;;;25.70;28.50;;;;;;2269896;61;20720;-65
2022/10/05 07:28:47;0.00;0.00;0.62;0.00;0.00;0.62;3.10;2.60;;;25.80;28.60;;;;;;2269082;61;20372;-74
2022/10/05 07:31:44;0.00;0.00;0.62;0.00;0.00;0.62;2.40;2.20;;;25.80;28.60;;;;;;2266874;61;20411;-70
2022/10/05 07:34:40;0.00;0.00;0.62;0.00;0.00;0.62;2.70;2.30;;;25.80;28.60;;;;;;2269606;61;20474;-71
2022/10/05 07:40:45;0.00;0.00;0.62;0.00;0.00;0.62;2.50;2.30;;;25.90;28.60;;;;;;2269826;61;20443;-71
2022/10/05 07:43:38;0.00;0.00;0.62;0.00;0.00;0.62;3.03;2.20;;;26.00;28.60;;;;;;2269023;61;20438;-71
2022/10/05 07:46:31;0.00;0.00;0.62;0.00;0.00;0.62;2.90;2.13;;;26.00;28.60;;;;;;2269562;61;20351;-69
2022/10/05 07:49:33;0.00;0.00;0.62;0.00;0.00;0.62;2.47;2.00;;;26.00;29.10;;;;;;2269386;61;20415;-76
2022/10/05 07:52:24;0.00;0.00;0.62;0.00;0.00;0.62;2.23;1.70;;;26.10;28.60;;;;;;2269588;61;20372;-73
2022/10/05 07:55:18;0.00;0.00;0.62;0.00;0.00;0.62;2.93;1.90;;;26.10;28.60;;;;;;2269615;61;20409;-69
2022/10/05 07:58:13;0.00;0.00;0.62;0.00;0.00;0.62;2.70;1.87;;;26.20;28.60;;;;;;2268868;61;20763;-71
2022/10/05 08:01:10;0.00;0.00;0.62;0.00;0.00;0.62;2.37;1.63;;;26.20;28.50;;;;;;2269556;61;20406;-70
2022/10/05 08:04:03;0.00;0.00;0.62;0.00;0.00;0.62;2.10;1.60;;;26.20;28.50;;;;;;2269608;61;20394;-73
2022/10/05 08:06:53;0.00;0.00;0.62;0.00;0.00;0.62;2.33;1.93;;;26.20;28.50;;;;;;2269111;61;20435;-69
2022/10/05 08:09:44;0.00;0.00;0.62;0.00;0.00;0.62;2.60;1.83;;;26.30;28.50;;;;;;2344596;53;20395;-70
2022/10/05 08:12:35;0.00;0.00;0.62;0.00;0.00;0.62;2.20;1.60;;;26.30;28.50;;;;;;2272351;61;20378;-69
2022/10/05 08:15:24;0.00;0.00;0.62;0.00;0.00;0.62;1.90;1.70;;;26.30;28.50;;;;;;2273230;61;20382;-70
2022/10/05 08:18:17;0.00;0.00;0.62;0.00;0.00;0.62;2.10;1.80;;;26.30;28.50;;;;;;2274107;61;20379;-73
2022/10/05 08:21:10;0.00;0.00;0.62;0.00;0.00;0.62;2.10;1.83;;;26.40;28.50;;;;;;2272622;61;20366;-67
2022/10/05 08:24:04;0.00;0.00;0.62;0.00;0.00;0.62;2.10;1.60;;;26.40;28.50;;;;;;2269839;61;20392;-70
2022/10/05 08:27:00;0.00;0.00;0.62;0.00;0.00;0.62;2.10;1.50;;;26.40;28.50;;;;;;2269000;61;20448;-73
2022/10/05 08:29:54;0.00;0.00;0.62;0.00;0.00;0.62;1.60;1.23;;;26.50;28.60;;;;;;2272110;61;20402;-69
2022/10/05 08:32:46;0.00;0.00;0.62;0.00;0.00;0.62;1.87;1.50;;;26.50;28.60;;;;;;2274066;61;20406;-68
2022/10/05 08:35:38;0.00;0.00;0.62;0.00;0.00;0.62;1.90;1.60;;;26.50;28.50;;;;;;2273020;61;20359;-67
2022/10/05 08:38:29;0.00;0.00;0.62;0.00;0.00;0.62;1.80;1.60;;;26.60;28.60;;;;;;2273763;61;20348;-67
2022/10/05 08:41:51;0.00;0.00;0.62;0.00;0.00;0.62;2.70;1.97;;;26.60;28.50;;;;;;2272560;61;20807;-73
2022/10/05 08:45:10;0.00;0.00;0.62;0.00;0.00;0.62;1.70;1.50;;;26.60;28.50;;;;;;2269779;61;20379;-75
2022/10/05 08:48:34;0.00;0.00;0.62;0.00;0.00;0.62;1.83;1.57;;;26.60;28.50;;;;;;2269005;61;20408;-69
2022/10/05 08:51:48;0.00;0.00;0.62;0.00;0.00;0.62;2.30;1.57;;;26.70;28.50;;;;;;2502423;53;20360;-74
2022/10/05 08:54:45;0.00;0.00;0.62;0.00;0.00;0.62;1.90;1.70;;;26.80;28.50;;;;;;2265651;61;20385;-68
2022/10/05 08:58:24;0.00;0.00;0.62;0.00;0.00;0.62;2.00;1.50;;;26.80;28.50;;;;;;2265342;61;20400;-73
2022/10/05 09:01:19;0.00;0.00;0.62;0.00;0.00;0.62;1.93;1.43;;;26.80;29.10;;;;;;2265593;61;20365;-73
2022/10/05 09:04:34;0.00;0.00;0.62;0.00;0.00;0.62;1.70;1.50;;;26.80;28.50;;;;;;2265380;61;20624;-69
2022/10/05 09:07:38;0.00;0.00;0.62;0.00;0.00;0.62;1.67;1.40;;;26.80;28.50;;;;;;2265454;61;20731;-73
2022/10/05 09:11:05;0.00;0.00;0.62;0.00;0.00;0.62;2.10;1.50;;;26.80;28.50;;;;;;2265624;61;20380;-72
2022/10/05 09:14:32;0.00;0.00;0.62;0.00;0.00;0.62;2.40;1.90;;;26.90;28.50;;;;;;2265426;61;20364;-70
2022/10/05 09:17:36;0.00;0.00;0.62;0.00;0.00;0.62;2.53;1.80;;;26.90;28.50;;;;;;2249258;61;20625;-68
2022/10/05 09:20:29;0.00;0.00;0.62;0.00;0.00;0.62;1.90;1.50;;;26.90;28.50;;;;;;2265064;61;20368;-71
2022/10/05 09:23:35;0.00;0.00;0.62;0.00;0.00;0.62;2.27;1.43;;;26.90;29.00;;;;;;2265716;61;20411;-71
2022/10/05 09:26:50;0.00;0.00;0.62;0.00;0.00;0.62;1.93;1.47;;;27.00;28.50;;;;;;2265316;61;20774;-71
2022/10/05 09:30:09;0.00;0.00;0.62;0.00;0.00;0.62;1.70;1.30;;;27.00;28.40;;;;;;2265345;61;20460;-70
2022/10/05 09:33:52;0.00;0.00;0.62;0.00;0.00;0.62;1.97;1.40;;;27.00;28.40;;;;;;2265801;61;20365;-69
2022/10/05 09:37:17;0.00;0.00;0.62;0.00;0.00;0.62;1.93;1.43;;;27.00;28.40;;;;;;2265334;61;20400;-70
2022/10/05 09:40:47;0.00;0.00;0.62;0.00;0.00;0.62;1.57;1.37;;;27.00;28.40;;;;;;2268699;61;20600;-69
2022/10/05 09:44:21;0.00;0.00;0.62;0.00;0.00;0.62;2.00;1.50;;;27.10;28.40;;;;;;2269675;61;20356;-73
2022/10/05 09:47:34;0.00;0.00;0.62;0.00;0.00;0.62;1.77;1.40;;;27.10;28.40;;;;;;2269639;61;20353;-71
2022/10/05 09:51:13;0.00;0.00;0.62;0.00;0.00;0.62;2.40;1.70;;;27.10;28.40;;;;;;2269080;61;20396;-75
2022/10/05 09:54:42;0.00;0.00;0.62;0.00;0.00;0.62;1.60;1.33;;;27.10;28.40;;;;;;2269935;61;20360;-69
2022/10/05 09:58:13;0.00;0.00;0.62;0.00;0.00;0.62;2.00;1.40;;;27.20;28.40;;;;;;2269337;61;20367;-72
2022/10/05 10:01:50;0.00;0.00;0.62;0.00;0.00;0.62;1.67;1.30;;;27.20;28.40;;;;;;2507336;53;20731;-71
2022/10/05 10:05:05;0.00;0.00;0.62;0.00;0.00;0.62;1.97;1.50;;;27.20;28.40;;;;;;2256066;61;20422;-72
2022/10/05 10:08:19;0.00;0.00;0.62;0.00;0.00;0.62;1.70;1.47;;;27.20;28.30;;;;;;2256880;61;20369;-68
2022/10/05 10:11:19;0.00;0.00;0.62;0.00;0.00;0.62;1.60;1.10;;;27.20;28.30;;;;;;2269022;61;20406;-74
2022/10/05 10:14:49;0.00;0.00;0.62;0.00;0.00;0.62;1.83;1.50;;;27.20;28.30;;;;;;2312369;53;20379;-76
2022/10/05 10:17:54;0.00;0.00;0.62;0.00;0.00;0.62;1.70;1.23;;;27.30;28.30;;;;;;2269653;61;20367;-72
2022/10/05 10:21:03;0.00;0.00;0.62;0.00;0.00;0.62;2.07;1.50;;;27.30;28.30;;;;;;2272252;61;20434;-77
2022/10/05 10:24:27;0.00;0.00;0.62;0.00;0.00;0.62;2.00;1.57;;;27.30;28.30;;;;;;2274002;61;20402;-75
2022/10/05 10:27:35;0.00;0.00;0.62;0.00;0.00;0.62;1.83;1.40;;;27.30;28.30;;;;;;2269585;61;20387;-71
2022/10/05 10:30:45;0.00;0.00;0.62;0.00;0.00;0.62;1.60;1.30;;;27.30;28.80;;;;;;2787893;45;20451;-74
2022/10/05 10:34:04;0.00;0.00;0.62;0.00;0.00;0.62;1.70;1.20;;;27.30;28.20;;;;;;2265147;61;20357;-68
2022/10/05 10:37:12;0.00;0.00;0.62;0.00;0.00;0.62;1.50;1.00;;;27.30;28.20;;;;;;2265461;61;20492;-68
2022/10/05 10:40:19;0.00;0.00;0.62;0.00;0.00;0.62;1.93;1.67;;;27.40;28.30;;;;;;2265231;61;20601;-73
2022/10/05 10:43:32;0.00;0.00;0.62;0.00;0.00;0.62;1.77;1.40;;;27.40;28.30;;;;;;2266634;61;20368;-72
2022/10/05 10:46:33;0.00;0.00;0.62;0.00;0.00;0.62;2.23;1.47;;;27.40;28.20;;;;;;2269269;61;20367;-72
2022/10/05 10:49:40;0.00;0.00;0.62;0.00;0.00;0.62;1.80;1.30;;;27.40;28.20;;;;;;2268984;61;20495;-73
2022/10/05 10:52:45;0.00;0.00;0.62;0.00;0.00;0.62;1.60;1.30;;;27.40;28.20;;;;;;2272750;61;20362;-68
2022/10/05 10:55:40;0.00;0.00;0.62;0.00;0.00;0.62;1.97;1.30;;;27.40;28.20;;;;;;2273291;61;20571;-75
2022/10/05 10:59:16;0.00;0.00;0.62;0.00;0.00;0.62;1.53;1.30;;;27.40;28.20;;;;;;2273345;61;20708;-71
2022/10/05 11:02:36;0.00;0.00;0.62;0.00;0.00;0.62;2.23;1.27;;;27.40;28.20;;;;;;2273499;61;20431;-72
2022/10/05 11:05:36;0.00;0.00;0.62;0.00;0.00;0.62;1.70;1.20;;;27.40;28.20;;;;;;2272340;61;20532;-68
2022/10/05 11:09:12;0.00;0.00;0.62;0.00;0.00;0.62;1.60;1.13;;;27.40;28.20;;;;;;2269219;61;20428;-69
2022/10/05 11:12:46;0.00;0.00;0.62;0.00;0.00;0.62;1.53;1.13;;;27.40;28.20;;;;;;2267782;61;20600;-73
2022/10/05 11:16:06;0.00;0.00;0.62;0.00;0.00;0.62;1.80;1.10;;;27.40;28.20;;;;;;2269739;61;20395;-72
2022/10/05 11:19:50;0.00;0.00;0.62;0.00;0.00;0.62;1.40;1.00;;;27.40;28.20;;;;;;2793349;45;20462;-70
2022/10/05 11:22:49;0.00;0.00;0.62;0.00;0.00;0.62;1.73;1.10;;;27.50;28.30;;;;;;2269285;61;20579;-69
2022/10/05 11:26:16;0.00;0.00;0.62;0.00;0.00;0.62;1.70;1.10;;;27.50;28.30;;;;;;2269010;61;20380;-75
2022/10/05 11:29:38;0.00;0.00;0.62;0.00;0.00;0.62;1.30;0.90;;;27.50;28.30;;;;;;2507143;53;20368;-73
2022/10/05 11:32:56;0.00;0.00;0.62;0.00;0.00;0.62;1.70;1.30;;;27.50;28.30;;;;;;2264203;61;20439;-71
2022/10/05 11:36:01;0.00;0.00;0.62;0.00;0.00;0.62;1.90;1.30;;;27.50;28.30;;;;;;2272750;61;20375;-71
2022/10/05 11:39:35;0.00;0.00;0.62;0.00;0.00;0.62;1.47;1.00;;;27.50;28.30;;;;;;2273231;61;20405;-68
2022/10/05 11:42:55;0.00;0.00;0.62;0.00;0.00;0.62;1.50;1.10;;;27.60;28.40;;;;;;2273190;61;20382;-70
2022/10/05 11:45:58;0.00;0.00;0.62;0.00;0.00;0.62;1.40;0.90;;;27.60;28.40;;;;;;2507413;53;20403;-74
2022/10/05 11:49:07;0.00;0.00;0.62;0.00;0.00;0.62;1.63;1.20;;;27.60;28.50;;;;;;2268829;61;20785;-73
2022/10/05 11:52:01;0.00;0.00;0.62;0.00;0.00;0.62;1.67;1.17;;;27.60;28.50;;;;;;2269609;61;20361;-71
2022/10/05 11:55:14;0.00;0.00;0.62;0.00;0.00;0.62;1.40;0.93;;;27.70;28.50;;;;;;2268973;61;20394;-67
2022/10/05 11:58:09;0.00;0.00;0.62;0.00;0.00;0.62;2.00;1.10;;;27.70;28.50;;;;;;2268942;61;20724;-68
2022/10/05 12:01:04;0.00;0.00;0.62;0.00;0.00;0.62;1.47;0.90;;;27.70;28.50;;;;;;2269262;61;20392;-68
2022/10/05 12:04:01;0.00;0.00;0.62;0.00;0.00;0.62;1.77;1.20;;;27.80;28.50;;;;;;2269930;61;20364;-68
2022/10/05 12:07:06;0.00;0.00;0.62;0.00;0.00;0.62;1.37;1.03;;;27.80;28.50;;;;;;2269636;61;20364;-68